sim
Sign-in with your pilot id or email,
or register
Callsign
Passwort

Schedule Details

Flight Number: DLH2429 (1)
Departure: Gothenburg Landvetter Airport (ESGG) at 11:15
Arrival: Munich Airport (EDDM) at 13:05
Route: Lufthansa Passenger Schedule. Enter filed route here before submitting Pirep.

Weather Information
Getting current METAR information for ESGG 291620Z 13003KT 9999 SCT047 13/09 Q1017
Getting current METAR information for EDDM 291620Z 27008KT 9999 BKN020 12/09 Q1019 NOSIG

Schedule Frequency

Route Map